Flight Track Log - Related Links

Times and Time Zones

All times are in EDT time to prevent confusion due to time zone crossing. See the QTR46 flight status page for this flight to view local times or setup timezone preferences in your user account.

Time Position Orientation Groundspeed Altitude Reporting Facility
EDT Latitude Longitude Course Direction KTS MPH feet Rate Location/Type
Sun 10:14:31 AM 53.3247 -2.3413 249° West 174 200 500  Level FlightAware UK
Sun 10:14:49 AM 53.3195 -2.3641 249° West 188 216 900 1,714 Climbing FlightAware UK
Sun 10:15:13 AM 53.3248 -2.3956 286° West 192 221 1,700 1,429 Climbing FlightAware UK
Sun 10:16:13 AM 53.3798 -2.4276 341° North 230 265 2,900 1,214 Climbing FlightAware UK
Sun 10:16:37 AM 53.4074 -2.4415 343° North 260 299 3,400 1,857 Climbing FlightAware UK
Sun 10:16:55 AM 53.4291 -2.4521 344° North 266 306 4,200 2,714 Climbing FlightAware UK
Sun 10:17:19 AM 53.4601 -2.4409 12° North 272 313 5,300 2,857 Climbing FlightAware UK
Sun 10:17:37 AM 53.4759 -2.4085 51° Northeast 274 315 6,200 3,000 Climbing FlightAware UK
Sun 10:17:55 AM 53.4810 -2.3678 78° East 276 318 7,100 2,571 Climbing FlightAware UK
Sun 10:18:19 AM 53.4869 -2.3127 80° East 284 327 8,000 2,375 Climbing FlightAware UK
Sun 10:18:43 AM 53.4924 -2.2569 81° East 290 334 9,000 1,857 Climbing FlightAware UK
Sun 10:19:01 AM 53.4968 -2.2113 81° East 312 359 9,300 1,000 Climbing FlightAware UK
Sun 10:19:25 AM 53.5029 -2.1475 81° East 336 387 9,700 1,714 Climbing FlightAware UK
Sun 10:19:43 AM 53.5078 -2.0981 81° East 342 394 10,500 2,500 Climbing FlightAware UK
Sun 10:20:01 AM 53.5126 -2.0481 81° East 348 400 11,200 2,082 Climbing FlightAware UK
Sun 10:20:32 AM 53.5207 -1.9628 81° East 354 407 12,200 2,125 Climbing FlightAware UK
Sun 10:20:49 AM 53.5254 -1.9112 81° East 360 414 12,900 2,341 Climbing FlightAware UK
Sun 10:21:13 AM 53.5182 -1.8422 100° East 362 417 13,800 2,233 Climbing FlightAware UK
Sun 10:21:32 AM 53.5096 -1.7908 106° East 368 423 14,500 2,233 Climbing FlightAware UK
Sun 10:21:56 AM 53.4973 -1.7227 107° East 370 426 15,400 2,222 Climbing FlightAware UK
Sun 10:22:26 AM 53.4819 -1.6365 107° East 380 437 16,500 2,333 Climbing FlightAware UK
Sun 10:23:08 AM 53.4604 -1.5137 106° East 388 447 18,200 2,273 Climbing FlightAware UK
Sun 10:23:32 AM 53.4480 -1.4446 107° East 392 451 19,000 2,000 Climbing FlightAware UK
Sun 10:23:50 AM 53.4386 -1.3926 107° East 394 453 19,600 1,857 Climbing FlightAware UK
Sun 10:24:14 AM 53.4258 -1.3228 107° East 398 458 20,300 1,625 Climbing FlightAware UK
Sun 10:24:38 AM 53.4127 -1.2508 107° East 406 467 20,900 1,571 Climbing FlightAware UK
Sun 10:24:56 AM 53.4028 -1.1961 107° East 406 467 21,400 1,625 Climbing FlightAware UK
Sun 10:25:26 AM 53.3862 -1.1053 107° East 416 479 22,200 1,750 Climbing FlightAware UK
Sun 10:25:44 AM 53.3763 -1.0505 107° East 418 481 22,800 1,545 Climbing FlightAware UK
Sun 10:26:32 AM 53.3497 -0.9031 107° East 422 486 23,900 1,364 Climbing FlightAware UK
Sun 10:26:50 AM 53.3394 -0.8463 107° East 424 488 24,300 1,333 Climbing FlightAware UK
Sun 10:27:08 AM 53.3293 -0.7903 107° East 428 493 24,700 1,333 Climbing FlightAware UK
Sun 10:27:26 AM 53.3188 -0.7329 107° East 434 499 25,100 1,500 Climbing FlightAware UK
Sun 10:27:44 AM 53.3081 -0.6761 107° East 436 502 25,600 1,429 Climbing FlightAware UK
Sun 10:28:08 AM 53.2938 -0.6005 107° East 434 499 26,100 1,143 Climbing FlightAware UK
Sun 10:29:08 AM 53.2575 -0.4072 107° East 446 513 27,200 994 Climbing FlightAware UK
Sun 10:30:51 AM 53.1924 -0.0708 108° East 452 520 28,800 902 Climbing FlightAware UK
Sun 10:31:21 AM 53.1724 0.0296 108° East 456 525 29,200 750 Climbing FlightAware UK
Sun 10:31:39 AM 53.1603 0.0905 108° East 464 534 29,400 1,333 Climbing FlightAware UK
Sun 10:32:33 AM 53.1241 0.2731 108° East 454 522 30,800 1,316 Climbing FlightAware UK
Sun 10:33:33 AM 53.1065 0.4834 98° East 446 513 31,900 1,000 Climbing FlightAware UK
Sun 10:33:57 AM 53.1019 0.5685 95° East 448 516 32,200 857 Climbing FlightAware UK
Sun 10:35:39 AM 53.0811 0.9328 95° East 448 516 33,700 810 Climbing FlightAware UK
Sun 10:36:03 AM 53.0762 1.0175 95° East 448 516 33,900 500 Climbing FlightAware UK
Sun 10:36:27 AM 53.0711 1.1019 96° East 448 516 34,100 571 Climbing FlightAware UK
Sun 10:36:45 AM 53.0678 1.1663 95° East 450 518 34,300 571 Climbing FlightAware UK
Sun 10:37:09 AM 53.0633 1.2514 95° East 450 518 34,500 444 Climbing FlightAware UK
Sun 10:37:39 AM 53.0573 1.3584 95° East 448 516 34,700 436 Climbing FlightAware UK
Sun 10:38:04 AM 53.0524 1.4447 95° East 450 518 34,900 490 Climbing FlightAware UK
Sun 10:38:28 AM 53.0476 1.5305 95° East 448 516 35,100 500 Climbing FlightAware UK
Sun 10:38:52 AM 53.0420 1.6176 96° East 450 518 35,300 400 Climbing FlightAware UK
Sun 10:39:28 AM 53.0345 1.7462 95° East 448 516 35,500 182 Climbing FlightAware UK
Sun 10:39:58 AM 53.0278 1.8551 96° East 450 518 35,500  Level FlightAware UK
Sun 10:40:16 AM 53.0238 1.9214 96° East 452 520 35,500  Level FlightAware UK
Sun 10:40:34 AM 53.0197 1.9879 96° East 456 525 35,500  Level FlightAware UK
Sun 10:41:16 AM 53.0101 2.1440 96° East 462 532 35,500  Level FlightAware UK
Sun 10:41:34 AM 53.0058 2.2121 96° East 464 534 35,500  Level FlightAware UK
Sun 10:41:52 AM 53.0015 2.2796 96° East 464 534 35,500  Level FlightAware UK
Sun 10:42:28 AM 52.9928 2.4148 96° East 466 536 35,500  Level FlightAware UK
Sun 10:42:46 AM 52.9883 2.4824 96° East 466 536 35,500  Level FlightAware UK
Sun 10:43:16 AM 52.9809 2.5951 96° East 468 539 35,500  Level FlightAware UK
Sun 10:43:40 AM 52.9750 2.6852 96° East 470 541 35,500  Level FlightAware UK
Sun 10:43:58 AM 52.9704 2.7534 96° East 474 545 35,500  Level FlightAware UK
Sun 10:44:17 AM 52.9655 2.8213 97° East 470 541 35,500  Level FlightAware UK
Sun 10:44:35 AM 52.9607 2.8879 97° East 468 539 35,500  Level FlightAware UK
Sun 10:45:11 AM 52.9521 3.0173 96° East 462 532 35,500  Level FlightAware UK
Sun 10:45:29 AM 52.9474 3.0823 97° East 462 532 35,500  Level FlightAware UK
Sun 10:45:53 AM 52.9411 3.1693 97° East 460 529 35,500  Level FlightAware UK
Sun 10:46:29 AM 52.9319 3.3002 97° East 464 534 35,500  Level FlightAware UK
Sun 10:46:59 AM 52.9239 3.4095 97° East 462 532 35,500  Level FlightAware UK
Sun 10:47:29 AM 52.9157 3.5197 97° East 462 532 35,500  Level FlightAware UK
Sun 10:47:47 AM 52.9107 3.5855 97° East 466 536 35,500  Level FlightAware UK
Sun 10:48:35 AM 52.8975 3.7614 97° East 468 539 35,500  Level FlightAware UK
Sun 10:48:53 AM 52.8923 3.8274 97° East 466 536 35,500  Level FlightAware UK
Sun 10:49:17 AM 52.8855 3.9150 97° East 466 536 35,500  Level FlightAware UK
Sun 10:49:47 AM 52.8766 4.0241 98° East 466 536 35,500  Level FlightAware UK
Sun 10:50:23 AM 52.8664 4.1549 97° East 464 534 35,500  Level FlightAware UK
Sun 10:50:47 AM 52.8593 4.2419 98° East 464 534 35,500  Level FlightAware UK
Sun 10:51:23 AM 52.8488 4.3722 98° East 466 536 35,500  Level FlightAware UK
Sun 10:52:05 AM 52.8368 4.5233 97° East 464 534 35,500  Level FlightAware UK
Sun 10:52:47 AM 52.8239 4.6730 98° East 462 532 35,500  Level FlightAware UK
Sun 10:53:05 AM 52.8186 4.7380 98° East 464 534 35,500  Level FlightAware UK
Sun 10:53:41 AM 52.8077 4.8662 98° East 460 529 35,500  Level FlightAware UK
Sun 10:53:59 AM 52.8025 4.9302 98° East 464 534 35,500  Level FlightAware UK
Sun 10:54:17 AM 52.7970 4.9943 98° East 464 534 35,500  Level FlightAware UK
Sun 10:54:35 AM 52.7912 5.0582 99° East 462 532 35,500  Level FlightAware UK
Sun 10:54:59 AM 52.7832 5.1433 99° East 462 532 35,500  Level FlightAware UK
Sun 10:55:17 AM 52.7773 5.2070 99° East 462 532 35,500  Level FlightAware UK
Sun 10:55:35 AM 52.7715 5.2708 98° East 462 532 35,500  Level FlightAware UK
Sun 10:55:53 AM 52.7662 5.3346 98° East 462 532 35,500  Level FlightAware UK
Sun 10:56:11 AM 52.7606 5.3984 98° East 464 534 35,500  Level FlightAware UK
Sun 10:56:35 AM 52.7531 5.4834 98° East 464 534 35,500  Level FlightAware UK
Sun 10:56:53 AM 52.7465 5.5468 100° East 464 534 35,500  Level FlightAware UK
Sun 10:57:17 AM 52.7392 5.6318 98° East 462 532 35,500  Level FlightAware UK
Sun 10:57:35 AM 52.7333 5.6952 99° East 460 529 35,500  Level FlightAware UK
Sun 10:58:05 AM 52.7234 5.8008 99° East 458 527 35,500  Level FlightAware UK
Sun 10:58:23 AM 52.7194 5.8657 96° East 458 527 35,500  Level FlightAware UK
Sun 10:58:41 AM 52.7135 5.9292 99° East 458 527 35,500  Level FlightAware UK
Sun 11:00:00 AM 52.6665 6.1335 111° Southeast  Level Estimated
Sun 11:07:00 AM 52.3637 7.4040 111° Southeast  Level Estimated
Sun 11:08:00 AM 52.3193 7.5841 112° Southeast  Level Estimated
Sun 11:09:00 AM 52.2746 7.7638 112° Southeast  Level Estimated
Sun 11:10:00 AM 52.2297 7.9431 112° Southeast  Level Estimated
Sun 11:11:00 AM 52.1846 8.1221 112° Southeast  Level Estimated
Sun 11:12:00 AM 52.1391 8.3007 112° Southeast  Level Estimated
Sun 11:13:00 AM 52.0934 8.4790 113° Southeast  Level Estimated
Sun 11:14:00 AM 52.0474 8.6569 113° Southeast  Level Estimated
Sun 11:15:00 AM 52.0011 8.8344 113° Southeast  Level Estimated
Sun 11:16:00 AM 51.9546 9.0115 113° Southeast  Level Estimated
Sun 11:17:00 AM 51.9078 9.1883 113° Southeast  Level Estimated
Sun 11:18:00 AM 51.8608 9.3647 113° Southeast  Level Estimated
Sun 11:19:00 AM 51.8134 9.5408 113° Southeast  Level Estimated
Sun 11:20:00 AM 51.7659 9.7164 114° Southeast  Level Estimated
Sun 11:21:00 AM 51.7180 9.8918 114° Southeast  Level Estimated
Sun 11:22:00 AM 51.6699 10.0667 114° Southeast  Level Estimated
Sun 11:23:00 AM 51.6216 10.2412 114° Southeast  Level Estimated
Sun 11:24:00 AM 51.5729 10.4154 114° Southeast  Level Estimated
Sun 11:25:00 AM 51.5241 10.5892 114° Southeast  Level Estimated
Sun 11:26:00 AM 51.4749 10.7627 114° Southeast  Level Estimated
Sun 11:27:00 AM 51.4255 10.9358 115° Southeast  Level Estimated
Sun 11:28:00 AM 51.3759 11.1084 115° Southeast  Level Estimated
Sun 11:29:00 AM 51.3260 11.2808 115° Southeast  Level Estimated
Sun 11:30:00 AM 51.2758 11.4527 115° Southeast  Level Estimated
Sun 11:31:00 AM 51.2254 11.6243 115° Southeast  Level Estimated
Sun 11:32:00 AM 51.1748 11.7955 115° Southeast  Level Estimated
Sun 11:33:00 AM 51.1239 11.9663 115° Southeast  Level Estimated
Sun 11:34:00 AM 51.0728 12.1367 115° Southeast  Level Estimated
Sun 11:35:00 AM 51.0214 12.3068 116° Southeast  Level Estimated
Sun 11:36:00 AM 50.9697 12.4764 116° Southeast  Level Estimated
Sun 11:37:00 AM 50.9178 12.6457 116° Southeast  Level Estimated
Sun 11:38:00 AM 50.8657 12.8146 116° Southeast  Level Estimated
Sun 11:39:00 AM 50.8133 12.9832 116° Southeast  Level Estimated
Sun 11:40:00 AM 50.7607 13.1514 116° Southeast  Level Estimated
Sun 11:41:00 AM 50.7079 13.3192 116° Southeast  Level Estimated
Sun 11:42:00 AM 50.6548 13.4866 117° Southeast  Level Estimated
Sun 11:43:00 AM 50.6014 13.6536 117° Southeast  Level Estimated
Sun 11:44:00 AM 50.5478 13.8202 117° Southeast  Level Estimated
Sun 11:45:00 AM 50.4940 13.9865 117° Southeast  Level Estimated
Sun 11:46:00 AM 50.4400 14.1524 117° Southeast  Level Estimated
Sun 11:47:00 AM 50.3857 14.3179 117° Southeast  Level Estimated
Sun 11:48:00 AM 50.3312 14.4831 117° Southeast  Level Estimated
Sun 11:49:00 AM 50.2764 14.6478 117° Southeast  Level Estimated
Sun 11:50:00 AM 50.2214 14.8122 118° Southeast  Level Estimated
Sun 11:51:00 AM 50.1662 14.9762 118° Southeast  Level Estimated
Sun 11:52:00 AM 50.1108 15.1398 118° Southeast  Level Estimated
Sun 11:53:00 AM 50.0551 15.3031 118° Southeast  Level Estimated
Sun 11:54:00 AM 49.9992 15.4659 118° Southeast  Level Estimated
Sun 11:55:00 AM 49.9431 15.6284 118° Southeast  Level Estimated
Sun 11:56:00 AM 49.8867 15.7905 118° Southeast  Level Estimated
Sun 11:57:00 AM 49.8301 15.9522 118° Southeast  Level Estimated
Sun 11:58:00 AM 49.7733 16.1136 119° Southeast  Level Estimated
Sun 11:59:00 AM 49.7163 16.2745 119° Southeast  Level Estimated
Sun 12:00:00 PM 49.6590 16.4351 119° Southeast  Level Estimated
Sun 12:01:00 PM 49.6016 16.5953 119° Southeast  Level Estimated
Sun 12:02:00 PM 49.5439 16.7551 119° Southeast  Level Estimated
Sun 12:03:00 PM 49.4860 16.9146 119° Southeast  Level Estimated
Sun 12:04:00 PM 49.4278 17.0737 119° Southeast  Level Estimated
Sun 12:05:00 PM 49.3695 17.2324 119° Southeast  Level Estimated
Sun 12:06:00 PM 49.3109 17.3907 120° Southeast  Level Estimated
Sun 12:07:00 PM 49.2521 17.5486 120° Southeast  Level Estimated
Sun 12:08:00 PM 49.1931 17.7062 120° Southeast  Level Estimated
Sun 12:09:00 PM 49.1339 17.8634 120° Southeast  Level Estimated
Sun 12:10:00 PM 49.0745 18.0202 120° Southeast  Level Estimated
Sun 12:11:00 PM 49.0149 18.1767 120° Southeast  Level Estimated
Sun 12:12:00 PM 48.9550 18.3327 120° Southeast  Level Estimated
Sun 12:13:00 PM 48.8949 18.4884 120° Southeast  Level Estimated
Sun 12:14:00 PM 48.8347 18.6437 120° Southeast  Level Estimated
Sun 12:15:00 PM 48.7742 18.7987 121° Southeast  Level Estimated
Sun 12:16:00 PM 48.7135 18.9533 121° Southeast  Level Estimated
Sun 12:17:00 PM 48.6526 19.1075 121° Southeast  Level Estimated
Sun 12:18:00 PM 48.5915 19.2613 121° Southeast  Level Estimated
Sun 12:19:00 PM 48.5302 19.4147 121° Southeast  Level Estimated
Sun 12:20:00 PM 48.4687 19.5678 121° Southeast  Level Estimated
Sun 12:21:00 PM 48.4070 19.7205 121° Southeast  Level Estimated
Sun 12:22:00 PM 48.3451 19.8729 121° Southeast  Level Estimated
Sun 12:23:00 PM 48.2830 20.0248 122° Southeast  Level Estimated
Sun 12:24:00 PM 48.2207 20.1764 122° Southeast  Level Estimated
Sun 12:25:00 PM 48.1582 20.3277 122° Southeast  Level Estimated
Sun 12:26:00 PM 48.0955 20.4785 122° Southeast  Level Estimated
Sun 12:27:00 PM 48.0326 20.6290 122° Southeast  Level Estimated
Sun 12:28:00 PM 47.9695 20.7791 122° Southeast  Level Estimated
Sun 12:29:00 PM 47.9062 20.9289 122° Southeast  Level Estimated
Sun 12:30:00 PM 47.8427 21.0783 122° Southeast  Level Estimated
Sun 12:31:00 PM 47.7790 21.2273 122° Southeast  Level Estimated
Sun 12:32:00 PM 47.7152 21.3760 123° Southeast  Level Estimated
Sun 12:33:00 PM 47.6511 21.5243 123° Southeast  Level Estimated
Sun 12:34:00 PM 47.5868 21.6722 123° Southeast  Level Estimated
Sun 12:35:00 PM 47.5224 21.8198 123° Southeast  Level Estimated
Sun 12:36:00 PM 47.4578 21.9670 123° Southeast  Level Estimated
Sun 12:37:00 PM 47.3930 22.1138 123° Southeast  Level Estimated
Sun 12:38:00 PM 47.3279 22.2603 123° Southeast  Level Estimated
Sun 12:39:00 PM 47.2628 22.4064 123° Southeast  Level Estimated
Sun 12:40:00 PM 47.1974 22.5522 123° Southeast  Level Estimated
Sun 12:41:00 PM 47.1318 22.6976 123° Southeast  Level Estimated
Sun 12:42:00 PM 47.0661 22.8426 124° Southeast  Level Estimated
Sun 12:43:00 PM 47.0001 22.9873 124° Southeast  Level Estimated
Sun 12:44:00 PM 46.9340 23.1316 124° Southeast  Level Estimated
Sun 12:45:00 PM 46.8677 23.2756 124° Southeast  Level Estimated
Sun 12:46:00 PM 46.8013 23.4192 124° Southeast  Level Estimated
Sun 12:47:00 PM 46.7346 23.5625 124° Southeast  Level Estimated
Sun 12:48:00 PM 46.6678 23.7054 124° Southeast  Level Estimated
Sun 12:49:00 PM 46.6008 23.8479 124° Southeast  Level Estimated
Sun 12:50:00 PM 46.5336 23.9902 124° Southeast  Level Estimated
Sun 12:51:00 PM 46.4662 24.1320 125° Southeast  Level Estimated
Sun 12:52:00 PM 46.3987 24.2735 125° Southeast  Level Estimated
Sun 12:53:00 PM 46.3310 24.4146 125° Southeast  Level Estimated
Sun 12:54:00 PM 46.2631 24.5555 125° Southeast  Level Estimated
Sun 12:55:00 PM 46.1951 24.6959 125° Southeast  Level Estimated
Sun 12:56:00 PM 46.1268 24.8360 125° Southeast  Level Estimated
Sun 12:57:00 PM 46.0584 24.9758 125° Southeast  Level Estimated
Sun 12:58:00 PM 45.9899 25.1152 125° Southeast  Level Estimated
Sun 12:59:00 PM 45.9211 25.2542 125° Southeast  Level Estimated
Sun 01:00:00 PM 45.8522 25.3930 125° Southeast  Level Estimated
Sun 01:01:00 PM 45.7832 25.5313 126° Southeast  Level Estimated
Sun 01:02:00 PM 45.7139 25.6694 126° Southeast  Level Estimated
Sun 01:03:00 PM 45.6445 25.8071 126° Southeast  Level Estimated
Sun 01:04:00 PM 45.5750 25.9444 126° Southeast  Level Estimated
Sun 01:05:00 PM 45.5052 26.0814 126° Southeast  Level Estimated
Sun 01:06:00 PM 45.4353 26.2181 126° Southeast  Level Estimated
Sun 01:07:00 PM 45.3653 26.3544 126° Southeast  Level Estimated
Sun 01:08:00 PM 45.2950 26.4904 126° Southeast  Level Estimated
Sun 01:09:00 PM 45.2247 26.6261 126° Southeast  Level Estimated
Sun 01:10:00 PM 45.1541 26.7614 126° Southeast  Level Estimated
Sun 01:11:00 PM 45.0834 26.8964 127° Southeast  Level Estimated
Sun 01:12:00 PM 45.0126 27.0310 127° Southeast  Level Estimated
Sun 01:13:00 PM 44.9415 27.1653 127° Southeast  Level Estimated
Sun 01:14:00 PM 44.8704 27.2993 127° Southeast  Level Estimated
Sun 01:15:00 PM 44.7990 27.4330 127° Southeast  Level Estimated
Sun 01:16:00 PM 44.7276 27.5663 127° Southeast  Level Estimated
Sun 01:17:00 PM 44.6559 27.6993 127° Southeast  Level Estimated
Sun 01:18:00 PM 44.5841 27.8320 127° Southeast  Level Estimated
Sun 01:19:00 PM 44.5122 27.9643 127° Southeast  Level Estimated
Sun 01:20:00 PM 44.4401 28.0963 127° Southeast  Level Estimated
Sun 01:21:00 PM 44.3678 28.2280 127° Southeast  Level Estimated
Sun 01:22:00 PM 44.2954 28.3594 128° Southeast  Level Estimated
Sun 01:23:00 PM 44.2229 28.4904 128° Southeast  Level Estimated
Sun 01:24:00 PM 44.1502 28.6211 128° Southeast  Level Estimated
Sun 01:25:00 PM 44.0773 28.7515 128° Southeast  Level Estimated
Sun 01:26:00 PM 44.0043 28.8816 128° Southeast  Level Estimated
Sun 01:27:00 PM 43.9312 29.0114 128° Southeast  Level Estimated
Sun 01:28:00 PM 43.8579 29.1408 128° Southeast  Level Estimated
Sun 01:29:00 PM 43.7844 29.2699 128° Southeast  Level Estimated
Sun 01:30:00 PM 43.7109 29.3987 128° Southeast  Level Estimated
Sun 01:31:00 PM 43.6371 29.5272 128° Southeast  Level Estimated
Sun 01:32:00 PM 43.5633 29.6554 128° Southeast  Level Estimated
Sun 01:33:00 PM 43.4893 29.7832 129° Southeast  Level Estimated
Sun 01:34:00 PM 43.4151 29.9107 129° Southeast  Level Estimated
Sun 01:35:00 PM 43.3408 30.0380 129° Southeast  Level Estimated
Sun 01:36:00 PM 43.2663 30.1649 129° Southeast  Level Estimated
Sun 01:37:00 PM 43.1918 30.2915 129° Southeast  Level Estimated
Sun 01:38:00 PM 43.1171 30.4178 129° Southeast  Level Estimated
Sun 01:39:00 PM 43.0422 30.5438 129° Southeast  Level Estimated
Sun 01:40:00 PM 42.9672 30.6695 129° Southeast  Level Estimated
Sun 01:41:00 PM 42.8921 30.7948 129° Southeast  Level Estimated
Sun 01:42:00 PM 42.8168 30.9199 129° Southeast  Level Estimated
Sun 01:43:00 PM 42.7414 31.0447 129° Southeast  Level Estimated
Sun 01:44:00 PM 42.6659 31.1691 130° Southeast  Level Estimated
Sun 01:45:00 PM 42.5902 31.2933 130° Southeast  Level Estimated
Sun 01:46:00 PM 42.5144 31.4172 130° Southeast  Level Estimated
Sun 01:47:00 PM 42.4384 31.5407 130° Southeast  Level Estimated
Sun 01:48:00 PM 42.3624 31.6640 130° Southeast  Level Estimated
Sun 01:49:00 PM 42.2862 31.7869 130° Southeast  Level Estimated
Sun 01:50:00 PM 42.2098 31.9096 130° Southeast  Level Estimated
Sun 01:51:00 PM 42.1334 32.0320 130° Southeast  Level Estimated
Sun 01:52:00 PM 42.0568 32.1540 130° Southeast  Level Estimated
Sun 01:53:00 PM 41.9801 32.2758 130° Southeast  Level Estimated
Sun 01:54:00 PM 41.9032 32.3973 130° Southeast  Level Estimated
Sun 01:55:00 PM 41.8262 32.5185 130° Southeast  Level Estimated
Sun 01:56:00 PM 41.7491 32.6394 131° Southeast  Level Estimated
Sun 01:57:00 PM 41.6719 32.7600 131° Southeast  Level Estimated
Sun 01:58:00 PM 41.5945 32.8803 131° Southeast  Level Estimated
Sun 01:59:00 PM 41.5171 33.0004 131° Southeast  Level Estimated
Sun 02:00:00 PM 41.4394 33.1201 131° Southeast  Level Estimated
Sun 02:01:00 PM 41.3617 33.2396 131° Southeast  Level Estimated
Sun 02:02:00 PM 41.2839 33.3587 131° Southeast  Level Estimated
Sun 02:03:00 PM 41.2059 33.4776 131° Southeast  Level Estimated
Sun 02:04:00 PM 41.1278 33.5962 131° Southeast  Level Estimated
Sun 02:05:00 PM 41.0495 33.7145 131° Southeast  Level Estimated
Sun 02:06:00 PM 40.9712 33.8326 131° Southeast  Level Estimated
Sun 02:07:00 PM 40.8927 33.9503 131° Southeast  Level Estimated
Sun 02:08:00 PM 40.8142 34.0678 131° Southeast  Level Estimated
Sun 02:09:00 PM 40.7355 34.1850 132° Southeast  Level Estimated
Sun 02:10:00 PM 40.6567 34.3019 132° Southeast  Level Estimated
Sun 02:11:00 PM 40.5777 34.4186 132° Southeast  Level Estimated
Sun 02:12:00 PM 40.4987 34.5350 132° Southeast  Level Estimated
Sun 02:13:00 PM 40.4195 34.6511 132° Southeast  Level Estimated
Sun 02:14:00 PM 40.3402 34.7669 132° Southeast  Level Estimated
Sun 02:15:00 PM 40.2608 34.8825 132° Southeast  Level Estimated
Sun 02:16:00 PM 40.1813 34.9977 132° Southeast  Level Estimated
Sun 02:17:00 PM 40.1017 35.1127 132° Southeast  Level Estimated
Sun 02:18:00 PM 40.0219 35.2275 132° Southeast  Level Estimated
Sun 02:19:00 PM 39.9421 35.3420 132° Southeast  Level Estimated
Sun 02:20:00 PM 39.8621 35.4562 132° Southeast  Level Estimated
Sun 02:21:00 PM 39.7820 35.5701 132° Southeast  Level Estimated
Sun 02:22:00 PM 39.7018 35.6838 132° Southeast  Level Estimated
Sun 02:23:00 PM 39.6215 35.7972 133° Southeast  Level Estimated
Sun 02:24:00 PM 39.5411 35.9104 133° Southeast  Level Estimated
Sun 02:25:00 PM 39.4606 36.0233 133° Southeast  Level Estimated
Sun 02:26:00 PM 39.3800 36.1359 133° Southeast  Level Estimated
Sun 02:27:00 PM 39.2992 36.2482 133° Southeast  Level Estimated
Sun 02:28:00 PM 39.2184 36.3604 133° Southeast  Level Estimated
Sun 02:29:00 PM 39.1374 36.4722 133° Southeast  Level Estimated
Sun 02:30:00 PM 39.0564 36.5838 133° Southeast  Level Estimated
Sun 02:31:00 PM 38.9752 36.6951 133° Southeast  Level Estimated
Sun 02:32:00 PM 38.8939 36.8062 133° Southeast  Level Estimated
Sun 02:33:00 PM 38.8125 36.9170 133° Southeast  Level Estimated
Sun 02:34:00 PM 38.7310 37.0276 133° Southeast  Level Estimated
Sun 02:35:00 PM 38.6495 37.1380 133° Southeast  Level Estimated
Sun 02:36:00 PM 38.5678 37.2480 133° Southeast  Level Estimated
Sun 02:37:00 PM 38.4860 37.3578 134° Southeast  Level Estimated
Sun 02:38:00 PM 38.4041 37.4674 134° Southeast  Level Estimated
Sun 02:39:00 PM 38.3221 37.5767 134° Southeast  Level Estimated
Sun 02:40:00 PM 38.2400 37.6858 134° Southeast  Level Estimated
Sun 02:41:00 PM 38.1578 37.7947 134° Southeast  Level Estimated
Sun 02:42:00 PM 38.0755 37.9032 134° Southeast  Level Estimated
Sun 02:43:00 PM 37.9931 38.0116 134° Southeast  Level Estimated
Sun 02:44:00 PM 37.9106 38.1197 134° Southeast  Level Estimated
Sun 02:45:00 PM 37.8280 38.2275 134° Southeast  Level Estimated
Sun 02:46:00 PM 37.7453 38.3352 134° Southeast  Level Estimated
Sun 02:47:00 PM 37.6625 38.4425 134° Southeast  Level Estimated
Sun 02:48:00 PM 37.5796 38.5497 134° Southeast  Level Estimated
Sun 02:49:00 PM 37.4966 38.6566 134° Southeast  Level Estimated
Sun 02:50:00 PM 37.4136 38.7632 134° Southeast  Level Estimated
Sun 02:51:00 PM 37.3304 38.8697 134° Southeast  Level Estimated
Sun 02:52:00 PM 37.2471 38.9758 135° Southeast  Level Estimated
Sun 02:53:00 PM 37.1637 39.0818 135° Southeast  Level Estimated
Sun 02:54:00 PM 37.0803 39.1875 135° Southeast  Level Estimated
Sun 02:55:00 PM 36.9967 39.2930 135° Southeast  Level Estimated
Sun 02:56:00 PM 36.9131 39.3983 135° Southeast  Level Estimated
Sun 02:57:00 PM 36.8293 39.5033 135° Southeast  Level Estimated
Sun 02:58:00 PM 36.7455 39.6081 135° Southeast  Level Estimated
Sun 02:59:00 PM 36.6616 39.7127 135° Southeast  Level Estimated
Sun 03:00:00 PM 36.5776 39.8170 135° Southeast  Level Estimated
Sun 03:01:00 PM 36.4935 39.9211 135° Southeast  Level Estimated
Sun 03:02:00 PM 36.4092 40.0250 135° Southeast  Level Estimated
Sun 03:03:00 PM 36.3250 40.1287 135° Southeast  Level Estimated
Sun 03:04:00 PM 36.2406 40.2321 135° Southeast  Level Estimated
Sun 03:05:00 PM 36.1561 40.3353 135° Southeast  Level Estimated
Sun 03:06:00 PM 36.0716 40.4383 135° Southeast  Level Estimated
Sun 03:07:00 PM 35.9869 40.5411 135° Southeast  Level Estimated
Sun 03:08:00 PM 35.9022 40.6436 136° Southeast  Level Estimated
Sun 03:09:00 PM 35.8174 40.7459 136° Southeast  Level Estimated
Sun 03:10:00 PM 35.7325 40.8480 136° Southeast  Level Estimated
Sun 03:11:00 PM 35.6475 40.9499 136° Southeast  Level Estimated
Sun 03:12:00 PM 35.5624 41.0516 136° Southeast  Level Estimated
Sun 03:13:00 PM 35.4773 41.1531 136° Southeast  Level Estimated
Sun 03:14:00 PM 35.3920 41.2543 136° Southeast  Level Estimated
Sun 03:15:00 PM 35.3067 41.3554 136° Southeast  Level Estimated
Sun 03:16:00 PM 35.2213 41.4562 136° Southeast  Level Estimated
Sun 03:17:00 PM 35.1358 41.5568 136° Southeast  Level Estimated
Sun 03:18:00 PM 35.0502 41.6572 136° Southeast  Level Estimated
Sun 03:19:00 PM 34.9645 41.7574 136° Southeast  Level Estimated
Sun 03:20:00 PM 34.8788 41.8574 136° Southeast  Level Estimated
Sun 03:21:00 PM 34.7930 41.9571 136° Southeast  Level Estimated
Sun 03:22:00 PM 34.7071 42.0567 136° Southeast  Level Estimated
Sun 03:23:00 PM 34.6211 42.1560 136° Southeast  Level Estimated
Sun 03:24:00 PM 34.5350 42.2552 136° Southeast  Level Estimated
Sun 03:25:00 PM 34.4489 42.3541 137° Southeast  Level Estimated
Sun 03:26:00 PM 34.3626 42.4529 137° Southeast  Level Estimated
Sun 03:27:00 PM 34.2763 42.5514 137° Southeast  Level Estimated
Sun 03:28:00 PM 34.1899 42.6497 137° Southeast  Level Estimated
Sun 03:29:00 PM 34.1035 42.7479 137° Southeast  Level Estimated
Sun 03:30:00 PM 34.0169 42.8458 137° Southeast  Level Estimated
Sun 03:31:00 PM 33.9303 42.9435 137° Southeast  Level Estimated
Sun 03:32:00 PM 33.8436 43.0411 137° Southeast  Level Estimated
Sun 03:33:00 PM 33.7569 43.1384 137° Southeast  Level Estimated
Sun 03:34:00 PM 33.6700 43.2355 137° Southeast  Level Estimated
Sun 03:35:00 PM 33.5831 43.3325 137° Southeast  Level Estimated
Sun 03:36:00 PM 33.4961 43.4292 137° Southeast  Level Estimated
Sun 03:37:00 PM 33.4090 43.5258 137° Southeast  Level Estimated
Sun 03:38:00 PM 33.3219 43.6221 137° Southeast  Level Estimated
Sun 03:39:00 PM 33.2346 43.7183 137° Southeast  Level Estimated
Sun 03:40:00 PM 33.1474 43.8143 137° Southeast  Level Estimated
Sun 03:41:00 PM 33.0600 43.9101 137° Southeast  Level Estimated
Sun 03:42:00 PM 32.9725 44.0057 137° Southeast  Level Estimated
Sun 03:43:00 PM 32.8850 44.1011 138° Southeast  Level Estimated
Sun 03:44:00 PM 32.7974 44.1963 138° Southeast  Level Estimated
Sun 03:45:00 PM 32.7098 44.2913 138° Southeast  Level Estimated
Sun 03:46:00 PM 32.6220 44.3862 138° Southeast  Level Estimated
Sun 03:47:00 PM 32.5342 44.4808 138° Southeast  Level Estimated
Sun 03:48:00 PM 32.4464 44.5753 138° Southeast  Level Estimated
Sun 03:49:00 PM 32.3584 44.6696 138° Southeast  Level Estimated
Sun 03:50:00 PM 32.2704 44.7637 138° Southeast  Level Estimated
Sun 03:51:00 PM 32.1823 44.8576 138° Southeast  Level Estimated
Sun 03:52:00 PM 32.0942 44.9513 138° Southeast  Level Estimated
Sun 03:53:00 PM 32.0060 45.0449 138° Southeast  Level Estimated
Sun 03:54:00 PM 31.9177 45.1383 138° Southeast  Level Estimated
Sun 03:55:00 PM 31.8293 45.2315 138° Southeast  Level Estimated
Sun 03:56:00 PM 31.7409 45.3245 138° Southeast  Level Estimated
Sun 03:57:00 PM 31.6524 45.4173 138° Southeast  Level Estimated
Sun 03:58:00 PM 31.5638 45.5100 138° Southeast  Level Estimated
Sun 03:59:00 PM 31.4752 45.6025 138° Southeast  Level Estimated
Sun 04:00:00 PM 31.3865 45.6948 138° Southeast  Level Estimated
Sun 04:01:00 PM 31.2978 45.7870 138° Southeast  Level Estimated
Sun 04:02:00 PM 31.2089 45.8789 138° Southeast  Level Estimated
Sun 04:03:00 PM 31.1200 45.9707 139° Southeast  Level Estimated
Sun 04:04:00 PM 31.0311 46.0624 139° Southeast  Level Estimated
Sun 04:05:00 PM 30.9421 46.1538 139° Southeast  Level Estimated
Sun 04:06:00 PM 30.8530 46.2451 139° Southeast  Level Estimated
Sun 04:07:00 PM 30.7638 46.3362 139° Southeast  Level Estimated
Sun 04:08:00 PM 30.6746 46.4271 139° Southeast  Level Estimated
Sun 04:09:00 PM 30.5853 46.5179 139° Southeast  Level Estimated
Sun 04:10:00 PM 30.4960 46.6085 139° Southeast  Level Estimated
Sun 04:11:00 PM 30.4066 46.6990 139° Southeast  Level Estimated
Sun 04:12:00 PM 30.3171 46.7892 139° Southeast  Level Estimated
Sun 04:13:00 PM 30.2276 46.8794 139° Southeast  Level Estimated
Sun 04:14:00 PM 30.1380 46.9693 139° Southeast  Level Estimated
Sun 04:15:00 PM 30.0484 47.0591 139° Southeast  Level Estimated
Sun 04:16:00 PM 29.9587 47.1487 139° Southeast  Level Estimated
Sun 04:17:00 PM 29.8689 47.2382 139° Southeast  Level Estimated
Sun 04:18:00 PM 29.7791 47.3275 139° Southeast  Level Estimated
Sun 04:19:00 PM 29.6892 47.4166 139° Southeast  Level Estimated
Sun 04:20:00 PM 29.5992 47.5056 139° Southeast  Level Estimated
Sun 04:21:00 PM 29.5092 47.5944 139° Southeast  Level Estimated
Sun 04:22:00 PM 29.4191 47.6831 139° Southeast  Level Estimated
Sun 04:23:00 PM 29.3290 47.7716 139° Southeast  Level Estimated
Sun 04:24:00 PM 29.2388 47.8600 139° Southeast  Level Estimated
Sun 04:25:00 PM 29.1486 47.9482 140° Southeast  Level Estimated
Sun 04:26:00 PM 29.0583 48.0362 140° Southeast  Level Estimated
Sun 04:27:00 PM 28.9679 48.1241 140° Southeast  Level Estimated
Sun 04:28:00 PM 28.8775 48.2118 140° Southeast  Level Estimated
Sun 04:29:00 PM 28.7871 48.2994 140° Southeast  Level Estimated
Sun 04:30:00 PM 28.6965 48.3868 140° Southeast  Level Estimated
Sun 04:31:00 PM 28.6059 48.4741 140° Southeast  Level Estimated
Sun 04:32:00 PM 28.5153 48.5612 140° Southeast  Level Estimated
Sun 04:33:00 PM 28.4246 48.6482 140° Southeast  Level Estimated
Sun 04:34:00 PM 28.3339 48.7350 140° Southeast  Level Estimated
Sun 04:35:00 PM 28.2431 48.8217 140° Southeast  Level Estimated
Sun 04:36:00 PM 28.1522 48.9082 140° Southeast  Level Estimated
Sun 04:37:00 PM 28.0613 48.9946 140° Southeast  Level Estimated
Sun 04:38:00 PM 27.9703 49.0809 140° Southeast  Level Estimated
Sun 04:39:00 PM 27.8793 49.1670 140° Southeast  Level Estimated
Sun 04:40:00 PM 27.7882 49.2529 140° Southeast  Level Estimated
Sun 04:41:00 PM 27.6971 49.3387 140° Southeast  Level Estimated
Sun 04:42:00 PM 27.6059 49.4244 140° Southeast  Level Estimated
Sun 04:43:00 PM 27.5147 49.5099 140° Southeast  Level Estimated
Sun 04:44:00 PM 27.4234 49.5953 140° Southeast  Level Estimated
Sun 04:45:00 PM 27.3321 49.6805 140° Southeast  Level Estimated
Sun 04:46:00 PM 27.2407 49.7656 140° Southeast  Level Estimated
Sun 04:47:00 PM 27.1493 49.8506 140° Southeast  Level Estimated
Sun 04:48:00 PM 27.0578 49.9354 140° Southeast  Level Estimated
Sun 04:49:00 PM 26.9662 50.0201 140° Southeast  Level Estimated
Sun 04:50:00 PM 26.8746 50.1046 141° Southeast  Level Estimated
Sun 04:51:00 PM 26.7830 50.1890 141° Southeast  Level Estimated
Sun 04:52:00 PM 26.6913 50.2733 141° Southeast  Level Estimated
Sun 04:53:00 PM 26.5996 50.3574 141° Southeast  Level Estimated
Sun 04:54:00 PM 26.5078 50.4414 141° Southeast  Level Estimated
Sun 04:55:00 PM 26.4159 50.5253 141° Southeast  Level Estimated
Sun 04:56:00 PM 26.3240 50.6091 141° Southeast  Level Estimated
Sun 04:57:00 PM 26.2321 50.6926 141° Southeast  Level Estimated
Sun 04:58:00 PM 26.1401 50.7761 141° Southeast  Level Estimated
Sun 04:59:00 PM 26.0481 50.8595 141° Southeast  Level Estimated
Sun 05:00:00 PM 25.9560 50.9427 141° Southeast  Level Estimated
Sun 05:01:00 PM 25.8639 51.0257 141° Southeast  Level Estimated
Sun 05:02:00 PM 25.7717 51.1087 141° Southeast  Level Estimated
Sun 05:03:00 PM 25.6795 51.1915 141° Southeast  Level Estimated
Sun 05:04:00 PM 25.5872 51.2742 141° Southeast  Level Estimated
Sun 05:05:00 PM 25.4949 51.3568 141° Southeast  Level Estimated
Sun 05:06:00 PM 25.4025 51.4392 141° Southeast  Level Estimated
Sun 05:07:00 PM 25.3101 51.5215 141° Southeast  Level Estimated
Sun 05:08:00 PM 25.2611 51.5651 141° Southeast  Level Estimated
Sun 05:09:00 PM 25.2611 51.5651 324° Northwest  Level Estimated
Sun 05:10:00 PM 25.2611 51.5651 324° Northwest  Level Estimated
Sun 05:11:00 PM 25.2611 51.5651 324° Northwest  Level Estimated
Sun 05:12:00 PM 25.2611 51.5651 324° Northwest  Level Estimated
Sun 05:13:00 PM 25.2611 51.5651 324° Northwest  Level Estimated
Sun 05:14:00 PM 25.2611 51.5651 324° Northwest  Level Estimated
Sun 05:15:00 PM 25.2611 51.5651 324° Northwest  Level Estimated
Sun 05:16:00 PM 25.2611 51.5651 324° Northwest  Level Estimated
Sun 05:17:00 PM 25.2611 51.5651 324° Northwest  Level Estimated
Sun 05:18:00 PM 25.2611 51.5651 324° Northwest  Level Estimated
Sun 05:19:00 PM 25.2611 51.5651 324° Northwest  Level Estimated

Login

Don't have an account? Register now (free) for customized features, flight alerts, and more!